Time;durP1;ratioP1;P1;durP2;ratioP2;P2;SDS_P1;SDS_P2;PMS_P1;PMS_P2;Temp;Humidity;BMP_temperature;BMP_pressure;BME280_temperature;BME280_humidity;BME280_pressure;Samples;Min_cycle;Max_cycle;Signal;HPM_P1;HPM_P2
2021/09/11 00:04:16;;;;;;;;;;;;;;;;;;10338656;28;19926;-71
2021/09/11 00:09:19;;;;;;;;;;;;;;;;;;10337106;28;19926;-73
2021/09/11 00:14:21;;;;;;;;;;;;;;;;;;10337948;28;19926;-72
2021/09/11 00:19:24;;;;;;;;;;;;;;;;;;10337008;28;20377;-73
2021/09/11 00:24:26;;;;;;;;;;;;;;;;;;10337690;28;19926;-72
2021/09/11 00:29:29;;;;;;;;;;;;;;;;;;10335986;28;19926;-70
2021/09/11 00:34:31;;;;;;;;;;;;;;;;;;10337280;28;19926;-71
2021/09/11 00:39:34;;;;;;;;;;;;;;;;;;10337336;28;20385;-71
2021/09/11 00:44:36;;;;;;;;;;;;;;;;;;10337070;28;20356;-71
2021/09/11 00:49:39;;;;;;;;;;;;;;;;;;10336778;28;19926;-69
2021/09/11 00:54:41;;;;;;;;;;;;;;;;;;10336359;28;19980;-70
2021/09/11 00:59:43;;;;;;;;;;;;;;;;;;10336469;28;19926;-72
2021/09/11 01:04:46;;;;;;;;;;;;;;;;;;10336252;28;19933;-71
2021/09/11 01:09:48;;;;;;;;;;;;;;;;;;10336495;28;19933;-71
2021/09/11 01:14:51;;;;;;;;;;;;;;;;;;10336261;28;19930;-70
2021/09/11 01:19:53;;;;;;;;;;;;;;;;;;10335814;28;19926;-71
2021/09/11 01:24:55;;;;;;;;;;;;;;;;;;10335763;28;19976;-72
2021/09/11 01:29:58;;;;;;;;;;;;;;;;;;10328481;28;19930;-70
2021/09/11 01:35:00;;;;;;;;;;;;;;;;;;10291940;28;19938;-72
2021/09/11 01:40:03;;;;;;;;;;;;;;;;;;10294137;28;19926;-72
2021/09/11 01:45:05;;;;;;;;;;;;;;;;;;10294589;28;20270;-72
2021/09/11 01:50:07;;;;;;;;;;;;;;;;;;10294337;28;19930;-71
2021/09/11 01:55:10;;;;;;;;;;;;;;;;;;10293744;28;19930;-72
2021/09/11 02:00:12;;;;;;;;;;;;;;;;;;10293709;28;19996;-72
2021/09/11 02:05:14;;;;;;;;;;;;;;;;;;10293815;28;19977;-71
2021/09/11 02:10:20;;;;;;;;;;;;;;;;;;10293714;28;19977;-72
2021/09/11 02:15:23;;;;;;;;;;;;;;;;;;10293372;28;19926;-72
2021/09/11 02:20:25;;;;;;;;;;;;;;;;;;10293156;28;19933;-71
2021/09/11 02:25:28;;;;;;;;;;;;;;;;;;10292817;28;19930;-70
2021/09/11 02:30:30;;;;;;;;;;;;;;;;;;10293582;28;19937;-72
2021/09/11 02:35:33;;;;;;;;;;;;;;;;;;10292306;28;19957;-72
2021/09/11 02:40:35;;;;;;;;;;;;;;;;;;10292910;28;19939;-72
2021/09/11 02:45:37;;;;;;;;;;;;;;;;;;10292472;28;19933;-70
2021/09/11 02:50:40;;;;;;;;;;;;;;;;;;10319443;28;19930;-72
2021/09/11 02:55:42;;;;;;;;;;;;;;;;;;10332280;28;19926;-72
2021/09/11 03:00:45;;;;;;;;;;;;;;;;;;10332702;28;19932;-72
2021/09/11 03:05:47;;;;;;;;;;;;;;;;;;10332780;28;19929;-71
2021/09/11 03:10:50;;;;;;;;;;;;;;;;;;10332176;28;19930;-72
2021/09/11 03:15:52;;;;;;;;;;;;;;;;;;10332169;28;19941;-69
2021/09/11 03:20:55;;;;;;;;;;;;;;;;;;10332095;28;19926;-70
2021/09/11 03:25:57;;;;;;;;;;;;;;;;;;10332277;28;20393;-71
2021/09/11 03:30:59;;;;;;;;;;;;;;;;;;10337240;28;19926;-70
2021/09/11 03:36:02;;;;;;;;;;;;;;;;;;10339494;28;19926;-71
2021/09/11 03:41:04;;;;;;;;;;;;;;;;;;10339803;28;19933;-69
2021/09/11 03:46:07;;;;;;;;;;;;;;;;;;10338220;28;19926;-70
2021/09/11 03:51:09;;;;;;;;;;;;;;;;;;10339008;28;19976;-72
2021/09/11 03:56:12;;;;;;;;;;;;;;;;;;10339053;28;19926;-72
2021/09/11 04:01:14;;;;;;;;;;;;;;;;;;10338500;28;19926;-72
2021/09/11 04:06:17;;;;;;;;;;;;;;;;;;10338671;28;19933;-72
2021/09/11 04:11:19;;;;;;;;;;;;;;;;;;10338336;28;19926;-72
2021/09/11 04:16:22;;;;;;;;;;;;;;;;;;10337930;28;19926;-72
2021/09/11 04:21:24;;;;;;;;;;;;;;;;;;10336459;28;20421;-72
2021/09/11 04:26:27;;;;;;;;;;;;;;;;;;10337776;28;19930;-72
2021/09/11 04:31:29;;;;;;;;;;;;;;;;;;10338011;28;19925;-72
2021/09/11 04:36:32;;;;;;;;;;;;;;;;;;10337319;28;19932;-72
2021/09/11 04:41:34;;;;;;;;;;;;;;;;;;10336901;28;20001;-72
2021/09/11 04:46:36;;;;;;;;;;;;;;;;;;10337480;28;19925;-71
2021/09/11 04:51:39;;;;;;;;;;;;;;;;;;10336443;28;19968;-69
2021/09/11 04:56:42;;;;;;;;;;;;;;;;;;10336824;28;20301;-70
2021/09/11 05:01:44;;;;;;;;;;;;;;;;;;10336119;28;19973;-72
2021/09/11 05:06:47;;;;;;;;;;;;;;;;;;10336173;28;20000;-71
2021/09/11 05:11:49;;;;;;;;;;;;;;;;;;10336036;28;20289;-71
2021/09/11 05:16:52;;;;;;;;;;;;;;;;;;10335576;28;19954;-72
2021/09/11 05:21:54;;;;;;;;;;;;;;;;;;10335679;28;19932;-70
2021/09/11 05:26:56;;;;;;;;;;;;;;;;;;10335490;28;19953;-72
2021/09/11 05:31:59;;;;;;;;;;;;;;;;;;10330185;28;20321;-72
2021/09/11 05:37:01;;;;;;;;;;;;;;;;;;10334327;28;19961;-61
2021/09/11 05:42:03;;;;;;;;;;;;;;;;;;10335784;28;20254;-60
2021/09/11 05:47:06;;;;;;;;;;;;;;;;;;10335605;28;19926;-62
2021/09/11 05:52:09;;;;;;;;;;;;;;;;;;10328833;28;19932;-64
2021/09/11 05:57:11;;;;;;;;;;;;;;;;;;10333602;28;19953;-60
2021/09/11 06:02:14;;;;;;;;;;;;;;;;;;10333222;28;20389;-60
2021/09/11 06:07:16;;;;;;;;;;;;;;;;;;10333698;28;19933;-62
2021/09/11 06:12:18;;;;;;;;;;;;;;;;;;10333807;28;19976;-61
2021/09/11 06:17:21;;;;;;;;;;;;;;;;;;10334151;28;19930;-61
2021/09/11 06:22:23;;;;;;;;;;;;;;;;;;10324396;28;20354;-60
2021/09/11 06:27:26;;;;;;;;;;;;;;;;;;10325800;28;19944;-57
2021/09/11 06:32:30;;;;;;;;;;;;;;;;;;10326654;28;19926;-56
2021/09/11 06:37:36;;;;;;;;;;;;;;;;;;10327624;28;20292;-60
2021/09/11 06:42:38;;;;;;;;;;;;;;;;;;10325508;28;19936;-59
2021/09/11 06:47:41;;;;;;;;;;;;;;;;;;10332875;28;19934;-61
2021/09/11 06:52:44;;;;;;;;;;;;;;;;;;10332072;28;19925;-61
2021/09/11 06:57:46;;;;;;;;;;;;;;;;;;10331965;28;19976;-64
2021/09/11 07:02:48;;;;;;;;;;;;;;;;;;10331729;28;19925;-58
2021/09/11 07:07:52;;;;;;;;;;;;;;;;;;10341971;28;19925;-64
2021/09/11 07:12:54;;;;;;;;;;;;;;;;;;10341228;28;19933;-62
2021/09/11 07:17:57;;;;;;;;;;;;;;;;;;10335877;28;19930;-62
2021/09/11 07:22:59;;;;;;;;;;;;;;;;;;10338460;28;19930;-63
2021/09/11 07:28:01;;;;;;;;;;;;;;;;;;10336948;28;20747;-58
2021/09/11 07:33:04;;;;;;;;;;;;;;;;;;10333329;28;19935;-58
2021/09/11 07:38:06;;;;;;;;;;;;;;;;;;10335713;28;19937;-63
2021/09/11 07:43:09;;;;;;;;;;;;;;;;;;10334712;28;19929;-62
2021/09/11 07:48:12;;;;;;;;;;;;;;;;;;10334419;28;19934;-63
2021/09/11 07:53:15;;;;;;;;;;;;;;;;;;10335537;28;19930;-62
2021/09/11 07:58:17;;;;;;;;;;;;;;;;;;10335040;28;20416;-64
2021/09/11 08:03:20;;;;;;;;;;;;;;;;;;10335088;28;19930;-60
2021/09/11 08:08:23;;;;;;;;;;;;;;;;;;10332589;28;19933;-58
2021/09/11 08:13:31;;;;;;;;;;;;;;;;;;10330632;28;19926;-66
2021/09/11 08:18:33;;;;;;;;;;;;;;;;;;10334741;28;20008;-63
2021/09/11 08:23:36;;;;;;;;;;;;;;;;;;10334450;28;19926;-59
2021/09/11 08:28:38;;;;;;;;;;;;;;;;;;10333311;28;19930;-61
2021/09/11 08:33:42;;;;;;;;;;;;;;;;;;10336509;28;19980;-60
2021/09/11 08:38:44;;;;;;;;;;;;;;;;;;10337828;28;19980;-62
2021/09/11 08:43:46;;;;;;;;;;;;;;;;;;10336000;28;20012;-62
2021/09/11 08:48:49;;;;;;;;;;;;;;;;;;10337849;28;20357;-58
2021/09/11 08:53:51;;;;;;;;;;;;;;;;;;10337495;28;19934;-62
2021/09/11 08:58:53;;;;;;;;;;;;;;;;;;10336893;28;19980;-70
2021/09/11 09:03:56;;;;;;;;;;;;;;;;;;10335051;28;19930;-58
2021/09/11 09:08:58;;;;;;;;;;;;;;;;;;10336642;28;19969;-62
2021/09/11 09:14:01;;;;;;;;;;;;;;;;;;10336850;28;19933;-68
2021/09/11 09:19:03;;;;;;;;;;;;;;;;;;10336660;28;19933;-59
2021/09/11 09:24:06;;;;;;;;;;;;;;;;;;10335760;28;20317;-62
2021/09/11 09:29:08;;;;;;;;;;;;;;;;;;10335393;28;19926;-58
2021/09/11 09:34:10;;;;;;;;;;;;;;;;;;10335676;28;20394;-71
2021/09/11 09:39:13;;;;;;;;;;;;;;;;;;10335654;28;19988;-59
2021/09/11 09:44:15;;;;;;;;;;;;;;;;;;10335440;28;19929;-68
2021/09/11 09:49:18;;;;;;;;;;;;;;;;;;10335558;28;20329;-62
2021/09/11 09:54:20;;;;;;;;;;;;;;;;;;10335195;28;19926;-62
2021/09/11 09:59:22;;;;;;;;;;;;;;;;;;10335284;28;19926;-68
2021/09/11 10:04:25;;;;;;;;;;;;;;;;;;10334211;28;20432;-59
2021/09/11 10:09:27;;;;;;;;;;;;;;;;;;10334635;28;20380;-68
2021/09/11 10:14:30;;;;;;;;;;;;;;;;;;10335024;28;19933;-72
2021/09/11 10:19:32;;;;;;;;;;;;;;;;;;10334037;28;19930;-59
2021/09/11 10:24:35;;;;;;;;;;;;;;;;;;10334349;28;19925;-62
2021/09/11 10:29:37;;;;;;;;;;;;;;;;;;10319819;28;20337;-62
2021/09/11 10:34:40;;;;;;;;;;;;;;;;;;10287544;28;19933;-63
2021/09/11 10:39:42;;;;;;;;;;;;;;;;;;10293694;28;19937;-62
2021/09/11 10:44:44;;;;;;;;;;;;;;;;;;10293672;28;20387;-62
2021/09/11 10:49:47;;;;;;;;;;;;;;;;;;10293279;28;19926;-69
2021/09/11 10:54:51;;;;;;;;;;;;;;;;;;10292305;28;21328;-62
2021/09/11 10:59:53;;;;;;;;;;;;;;;;;;10377560;22;19930;-66
2021/09/11 11:04:56;;;;;;;;;;;;;;;;;;10347237;28;19933;-66
2021/09/11 11:09:58;;;;;;;;;;;;;;;;;;10332106;28;19929;-64
2021/09/11 11:15:00;;;;;;;;;;;;;;;;;;10347034;28;19933;-67
2021/09/11 11:20:03;;;;;;;;;;;;;;;;;;10331841;28;19937;-65
2021/09/11 11:25:05;;;;;;;;;;;;;;;;;;10332618;28;19925;-67
2021/09/11 11:30:08;;;;;;;;;;;;;;;;;;10332725;28;20257;-65
2021/09/11 11:35:13;;;;;;;;;;;;;;;;;;10330705;28;19929;-68
2021/09/11 11:40:16;;;;;;;;;;;;;;;;;;10327625;28;20304;-68
2021/09/11 11:45:19;;;;;;;;;;;;;;;;;;10326928;28;19926;-68
2021/09/11 11:50:23;;;;;;;;;;;;;;;;;;10329746;28;20332;-68
2021/09/11 11:55:25;;;;;;;;;;;;;;;;;;10339401;28;19926;-68
2021/09/11 12:00:28;;;;;;;;;;;;;;;;;;10339184;28;19926;-69
2021/09/11 12:05:30;;;;;;;;;;;;;;;;;;10339358;28;19926;-68
2021/09/11 12:10:32;;;;;;;;;;;;;;;;;;10339842;28;19932;-63
2021/09/11 12:15:35;;;;;;;;;;;;;;;;;;10337928;28;19983;-67
2021/09/11 12:37:14;;;;;;;;;;;;;;;;;;10660415;27;19911;-65
2021/09/11 12:42:20;;;;;;;;;;;;;;;;;;10661051;27;19929;-64
2021/09/11 12:47:22;;;;;;;;;;;;;;;;;;10641221;27;19968;-66
2021/09/11 12:52:24;;;;;;;;;;;;;;;;;;10656748;27;19927;-67
2021/09/11 12:57:27;;;;;;;;;;;;;;;;;;10653967;27;19924;-66
2021/09/11 13:02:29;;;;;;;;;;;;;;;;;;10658469;27;19927;-66
2021/09/11 13:07:32;;;;;;;;;;;;;;;;;;10658599;27;19928;-64
2021/09/11 13:12:35;;;;;;;;;;;;;;;;;;10658649;27;19923;-64
2021/09/11 13:17:38;;;;;;;;;;;;;;;;;;10622293;27;20013;-64
2021/09/11 13:22:40;;;;;;;;;;;;;;;;;;10658189;27;19943;-64
2021/09/11 13:27:43;;;;;;;;;;;;;;;;;;10640021;27;19924;-64
2021/09/11 13:32:45;;;;;;;;;;;;;;;;;;10657613;27;19929;-64
2021/09/11 13:37:48;;;;;;;;;;;;;;;;;;10631569;27;20014;-68
2021/09/11 13:42:52;;;;;;;;;;;;;;;;;;10610835;27;20092;-66
2021/09/11 13:48:11;;;;;;;;;;;;;;;;;;10625623;27;19931;-66
2021/09/11 13:53:15;;;;;;;;;;;;;;;;;;10628750;27;19975;-64
2021/09/11 13:58:17;;;;;;;;;;;;;;;;;;10609583;27;19924;-64
2021/09/11 14:03:20;;;;;;;;;;;;;;;;;;10628609;27;19927;-64
2021/09/11 14:08:23;;;;;;;;;;;;;;;;;;10624157;27;19931;-67
2021/09/11 14:13:26;;;;;;;;;;;;;;;;;;10627624;27;19923;-68
2021/09/11 14:18:31;;;;;;;;;;;;;;;;;;10627093;27;20357;-67
2021/09/11 14:23:34;;;;;;;;;;;;;;;;;;10619724;27;19930;-66
2021/09/11 14:28:40;;;;;;;;;;;;;;;;;;10624248;27;19946;-68
2021/09/11 14:33:42;;;;;;;;;;;;;;;;;;10626154;27;19947;-63
2021/09/11 14:38:49;;;;;;;;;;;;;;;;;;10627234;27;19978;-67
2021/09/11 14:43:53;;;;;;;;;;;;;;;;;;10598157;27;19923;-64
2021/09/11 14:48:55;;;;;;;;;;;;;;;;;;10618668;27;20337;-63
2021/09/11 14:53:58;;;;;;;;;;;;;;;;;;10625206;27;19923;-63
2021/09/11 14:59:01;;;;;;;;;;;;;;;;;;10625708;27;19994;-67
2021/09/11 15:04:04;;;;;;;;;;;;;;;;;;10624735;27;19988;-63
2021/09/11 15:09:06;;;;;;;;;;;;;;;;;;10624105;27;19923;-63
2021/09/11 15:14:09;;;;;;;;;;;;;;;;;;10624830;27;20268;-63
2021/09/11 15:19:11;;;;;;;;;;;;;;;;;;10624875;27;20003;-63
2021/09/11 15:24:14;;;;;;;;;;;;;;;;;;10623769;27;19927;-64
2021/09/11 15:29:16;;;;;;;;;;;;;;;;;;10621342;27;20010;-64
2021/09/11 15:34:19;;;;;;;;;;;;;;;;;;10624140;27;19931;-67
2021/09/11 15:39:21;;;;;;;;;;;;;;;;;;10623665;27;19928;-72
2021/09/11 15:44:25;;;;;;;;;;;;;;;;;;10605235;27;20319;-63
2021/09/11 15:49:28;;;;;;;;;;;;;;;;;;10623867;27;20010;-67
2021/09/11 15:54:31;;;;;;;;;;;;;;;;;;10604869;27;19927;-67
2021/09/11 15:59:33;;;;;;;;;;;;;;;;;;10581923;27;19971;-63
2021/09/11 16:04:43;;;;;;;;;;;;;;;;;;10600830;27;20376;-62
2021/09/11 16:09:47;;;;;;;;;;;;;;;;;;10623564;27;19928;-65
2021/09/11 16:14:52;;;;;;;;;;;;;;;;;;10622729;27;20371;-70
2021/09/11 16:19:55;;;;;;;;;;;;;;;;;;10622891;27;19923;-66
2021/09/11 16:25:01;;;;;;;;;;;;;;;;;;10622254;28;19931;-66
2021/09/11 16:30:05;;;;;;;;;;;;;;;;;;10623321;28;19923;-69
2021/09/11 16:35:12;;;;;;;;;;;;;;;;;;10619139;28;20010;-65
2021/09/11 16:40:14;;;;;;;;;;;;;;;;;;10619722;28;19969;-63
2021/09/11 16:45:20;;;;;;;;;;;;;;;;;;10580500;28;19923;-63
2021/09/11 16:50:23;;;;;;;;;;;;;;;;;;10580097;28;19973;-63
2021/09/11 16:55:26;;;;;;;;;;;;;;;;;;10580795;28;19923;-65
2021/09/11 17:00:29;;;;;;;;;;;;;;;;;;10580649;28;20101;-63
2021/09/11 17:05:36;;;;;;;;;;;;;;;;;;10579912;28;19928;-63
2021/09/11 17:10:38;;;;;;;;;;;;;;;;;;10565098;28;19976;-64
2021/09/11 17:15:41;;;;;;;;;;;;;;;;;;10588174;28;19928;-65
2021/09/11 17:20:47;;;;;;;;;;;;;;;;;;10587424;28;19947;-63
2021/09/11 17:25:51;;;;;;;;;;;;;;;;;;10587607;28;19931;-65
2021/09/11 17:30:54;;;;;;;;;;;;;;;;;;10569467;28;19932;-63
2021/09/11 17:35:58;;;;;;;;;;;;;;;;;;10587618;28;20019;-62
2021/09/11 17:41:00;;;;;;;;;;;;;;;;;;10569254;28;19977;-63
2021/09/11 17:46:05;;;;;;;;;;;;;;;;;;10587009;28;19930;-63
2021/09/11 17:51:09;;;;;;;;;;;;;;;;;;10606087;27;19923;-63
2021/09/11 17:56:12;;;;;;;;;;;;;;;;;;10611975;27;19924;-64
2021/09/11 18:01:15;;;;;;;;;;;;;;;;;;10628989;27;19927;-63
2021/09/11 18:06:18;;;;;;;;;;;;;;;;;;10593451;27;19924;-64
2021/09/11 18:11:21;;;;;;;;;;;;;;;;;;10629157;27;19973;-64
2021/09/11 18:16:26;;;;;;;;;;;;;;;;;;10628369;27;20452;-64
2021/09/11 18:21:29;;;;;;;;;;;;;;;;;;10628550;27;19924;-63
2021/09/11 18:26:34;;;;;;;;;;;;;;;;;;10628648;27;19928;-62
2021/09/11 18:31:36;;;;;;;;;;;;;;;;;;10628526;27;19923;-55
2021/09/11 18:36:40;;;;;;;;;;;;;;;;;;10625987;27;20083;-70
2021/09/11 18:41:43;;;;;;;;;;;;;;;;;;10626076;27;19923;-73
2021/09/11 18:46:47;;;;;;;;;;;;;;;;;;10626744;27;19927;-70
